createdAt,value
2023-05-01T00:01:31.985Z,17.42
2023-05-01T00:04:02.211Z,19.08
2023-05-01T00:06:33.571Z,19.58
2023-05-01T00:09:03.657Z,18.38
2023-05-01T00:11:37.789Z,19.25
2023-05-01T00:14:07.972Z,17.35
2023-05-01T00:16:38.288Z,21.13
2023-05-01T00:19:08.403Z,17.58
2023-05-01T00:21:38.408Z,19.85
2023-05-01T00:24:09.139Z,18.65
2023-05-01T00:26:41.674Z,21.08
2023-05-01T00:29:11.817Z,19.33
2023-05-01T00:31:42.435Z,18.15
2023-05-01T00:34:12.815Z,20.17
2023-05-01T00:36:43.244Z,17.42
2023-05-01T00:39:13.213Z,17.70
2023-05-01T00:41:45.751Z,21.42
2023-05-01T00:44:16.834Z,22.42
2023-05-01T00:46:46.837Z,24.80
2023-05-01T00:49:17.680Z,30.45
2023-05-01T00:51:51.060Z,26.25
2023-05-01T00:54:21.188Z,28.85
2023-05-01T00:56:54.834Z,25.65
2023-05-01T00:59:24.904Z,24.60
2023-05-01T01:01:56.765Z,31.20
2023-05-01T01:04:28.871Z,29.80
2023-05-01T01:07:07.032Z,31.58
2023-05-01T01:09:55.984Z,27.27
2023-05-01T01:12:35.817Z,29.88
2023-05-01T01:15:18.285Z,32.88
2023-05-01T01:17:58.405Z,27.38
2023-05-01T01:20:39.936Z,26.85
2023-05-01T01:23:46.257Z,25.98
2023-05-01T01:26:36.482Z,22.45
2023-05-01T01:29:44.394Z,28.83
2023-05-01T01:32:43.354Z,29.77
2023-05-01T01:35:22.448Z,26.83
2023-05-01T01:38:00.428Z,26.50
2023-05-01T01:40:38.219Z,23.30
2023-05-01T01:43:10.755Z,28.10
2023-05-01T01:45:44.050Z,22.77
2023-05-01T01:48:18.890Z,26.02
2023-05-01T01:53:22.692Z,25.42
2023-05-01T01:55:54.899Z,23.10
2023-05-01T01:58:26.539Z,20.83
2023-05-01T02:00:58.261Z,22.00
2023-05-01T02:03:29.647Z,23.75
2023-05-01T02:06:04.003Z,22.80
2023-05-01T02:08:36.617Z,21.65
2023-05-01T02:11:08.171Z,21.30
2023-05-01T02:13:40.718Z,21.20
2023-05-01T02:16:11.472Z,22.75
2023-05-01T02:18:42.544Z,23.15
2023-05-01T02:21:16.380Z,17.90
2023-05-01T02:23:46.496Z,16.98
2023-05-01T02:26:19.793Z,20.08
2023-05-01T02:28:49.890Z,18.13
2023-05-01T02:31:19.877Z,20.92
2023-05-01T02:33:49.862Z,21.40
2023-05-01T02:36:22.393Z,20.35
2023-05-01T02:38:52.469Z,20.30
2023-05-01T02:41:25.230Z,20.67
2023-05-01T02:44:01.525Z,20.17
2023-05-01T02:46:34.172Z,20.17
2023-05-01T02:49:06.528Z,19.20
2023-05-01T02:51:40.243Z,18.75
2023-05-01T02:54:10.981Z,18.42
2023-05-01T02:56:41.130Z,18.33
2023-05-01T02:59:11.108Z,17.85
2023-05-01T03:01:41.094Z,20.88
2023-05-01T03:04:11.140Z,23.92
2023-05-01T03:06:44.706Z,19.15
2023-05-01T03:09:14.845Z,17.58
2023-05-01T03:11:44.774Z,18.67
2023-05-01T03:14:14.733Z,17.58
2023-05-01T03:16:44.780Z,18.08
2023-05-01T03:19:14.801Z,20.02
2023-05-01T03:21:47.387Z,22.17
2023-05-01T03:24:17.517Z,17.77
2023-05-01T03:26:47.483Z,18.15
2023-05-01T03:29:17.449Z,16.58
2023-05-01T03:31:47.471Z,21.05
2023-05-01T03:34:17.464Z,20.35
2023-05-01T03:36:49.981Z,19.98
2023-05-01T03:39:19.989Z,19.55
2023-05-01T03:41:49.948Z,18.63
2023-05-01T03:44:19.938Z,22.90
2023-05-01T03:46:49.901Z,19.88
2023-05-01T03:49:20.026Z,18.10
2023-05-01T03:51:52.708Z,18.65
2023-05-01T03:54:22.712Z,21.55
2023-05-01T03:56:52.721Z,19.65
2023-05-01T03:59:22.691Z,19.80
2023-05-01T04:01:53.004Z,20.05
2023-05-01T04:04:23.145Z,23.08
2023-05-01T04:06:55.719Z,18.30
2023-05-01T04:09:25.706Z,18.05
2023-05-01T04:11:55.700Z,17.85
2023-05-01T04:14:25.927Z,16.95
2023-05-01T04:16:56.512Z,19.98
2023-05-01T04:19:26.907Z,19.00
2023-05-01T04:21:59.476Z,17.65
2023-05-01T04:24:29.438Z,18.30
2023-05-01T04:26:59.468Z,14.75
2023-05-01T04:29:29.411Z,18.83
2023-05-01T04:31:59.470Z,17.95
2023-05-01T04:34:29.553Z,14.80
2023-05-01T04:37:03.278Z,16.98
2023-05-01T04:39:33.248Z,20.38
2023-05-01T04:42:03.715Z,18.92
2023-05-01T04:44:36.017Z,17.75
2023-05-01T04:47:06.479Z,22.80
2023-05-01T04:49:36.753Z,18.17
2023-05-01T04:52:09.364Z,17.13
2023-05-01T04:54:39.312Z,19.20
2023-05-01T04:57:09.273Z,20.73
2023-05-01T04:59:39.668Z,17.52
2023-05-01T05:02:09.640Z,18.00
2023-05-01T05:04:39.581Z,15.57
2023-05-01T05:07:12.115Z,16.95
2023-05-01T05:09:42.072Z,14.07
2023-05-01T05:12:12.039Z,14.80
2023-05-01T05:14:42.022Z,16.13
2023-05-01T05:17:12.464Z,14.68
2023-05-01T05:19:42.456Z,15.90
2023-05-01T05:22:15.831Z,16.83
2023-05-01T05:24:47.190Z,14.50
2023-05-01T05:27:17.186Z,16.13
2023-05-01T05:29:47.142Z,15.00
2023-05-01T05:32:17.216Z,13.90
2023-05-01T05:34:47.594Z,18.60
2023-05-01T05:37:20.153Z,14.23
2023-05-01T05:39:50.118Z,15.73
2023-05-01T05:42:20.378Z,13.65
2023-05-01T05:44:50.445Z,14.30
2023-05-01T05:47:20.442Z,15.38
2023-05-01T05:49:50.379Z,15.60
2023-05-01T05:52:22.910Z,16.15
2023-05-01T05:54:52.886Z,14.07
2023-05-01T05:57:22.862Z,15.93
2023-05-01T05:59:53.080Z,16.08
2023-05-01T06:02:23.201Z,15.23
2023-05-01T06:04:53.464Z,15.80
2023-05-01T06:07:26.257Z,16.98
2023-05-01T06:10:01.691Z,16.17
2023-05-01T06:12:31.991Z,12.82
2023-05-01T06:15:03.169Z,12.10
2023-05-01T06:17:33.225Z,15.15
2023-05-01T06:20:06.173Z,18.73
2023-05-01T06:22:38.745Z,12.88
2023-05-01T06:25:10.688Z,15.20
2023-05-01T06:27:40.731Z,18.27
2023-05-01T06:30:13.130Z,13.43
2023-05-01T06:32:43.861Z,14.57
2023-05-01T06:35:13.927Z,13.13
2023-05-01T06:37:46.471Z,17.60
2023-05-01T06:40:16.744Z,15.10
2023-05-01T06:42:46.724Z,11.25
2023-05-01T06:45:16.675Z,15.27
2023-05-01T06:47:46.727Z,11.00
2023-05-01T06:50:16.838Z,12.65
2023-05-01T06:52:49.476Z,16.60
2023-05-01T06:55:19.514Z,9.40
2023-05-01T06:57:49.478Z,10.45
2023-05-01T07:00:21.843Z,10.15
2023-05-01T07:02:51.955Z,10.32
2023-05-01T07:05:22.698Z,12.10
2023-05-01T07:08:01.125Z,8.00
2023-05-01T07:10:32.008Z,9.60
2023-05-01T07:13:03.637Z,11.00
2023-05-01T07:15:34.473Z,8.43
2023-05-01T07:18:06.267Z,8.30
2023-05-01T07:20:37.339Z,13.75
2023-05-01T07:23:09.938Z,8.68
2023-05-01T07:25:41.636Z,12.15
2023-05-01T07:28:11.608Z,9.88
2023-05-01T07:30:41.614Z,7.47
2023-05-01T07:33:12.221Z,10.20
2023-05-01T07:35:43.263Z,8.38
2023-05-01T07:38:16.246Z,7.75
2023-05-01T07:40:46.352Z,10.13
2023-05-01T07:43:16.601Z,9.75
2023-05-01T07:45:59.017Z,11.07
2023-05-01T07:48:30.501Z,8.20
2023-05-01T07:51:00.616Z,8.00
2023-05-01T07:53:33.315Z,10.55
2023-05-01T07:56:10.234Z,6.18
2023-05-01T07:58:41.689Z,7.65
2023-05-01T08:01:12.005Z,12.50
2023-05-01T08:03:42.325Z,12.82
2023-05-01T08:06:12.347Z,8.68
2023-05-01T08:08:44.911Z,10.20
2023-05-01T08:11:14.986Z,8.32
2023-05-01T08:13:44.932Z,9.13
2023-05-01T08:16:15.126Z,9.23
2023-05-01T08:18:45.129Z,7.55
2023-05-01T08:21:15.479Z,9.23
2023-05-01T08:23:48.011Z,7.07
2023-05-01T08:26:17.961Z,9.27
2023-05-01T08:28:47.989Z,7.78
2023-05-01T08:31:19.583Z,11.63
2023-05-01T08:33:49.659Z,6.97
2023-05-01T08:36:21.292Z,7.03
2023-05-01T08:38:54.296Z,5.53
2023-05-01T08:41:25.729Z,7.38
2023-05-01T08:43:56.092Z,6.03
2023-05-01T08:46:37.213Z,7.38
2023-05-01T08:49:09.461Z,11.50
2023-05-01T08:51:41.071Z,9.45
2023-05-01T08:54:14.461Z,6.97
2023-05-01T08:56:46.759Z,7.97
2023-05-01T08:59:17.750Z,7.80
2023-05-01T09:01:49.965Z,8.90
2023-05-01T09:04:20.903Z,8.27
2023-05-01T09:06:51.412Z,5.57
2023-05-01T09:09:23.970Z,10.90
2023-05-01T09:11:54.014Z,6.13
2023-05-01T09:14:24.103Z,7.60
2023-05-01T09:16:54.444Z,5.93
2023-05-01T09:19:24.618Z,6.05
2023-05-01T09:21:54.683Z,6.22
2023-05-01T09:24:28.370Z,5.38
2023-05-01T09:26:58.982Z,7.93
2023-05-01T09:29:41.897Z,5.88
2023-05-01T09:32:20.868Z,9.05
2023-05-01T09:34:52.702Z,5.47
2023-05-01T09:37:33.472Z,6.68
2023-05-01T09:40:12.231Z,8.40
2023-05-01T09:42:44.166Z,5.22
2023-05-01T09:45:16.921Z,10.43
2023-05-01T09:47:47.599Z,9.82
2023-05-01T09:50:34.917Z,5.97
2023-05-01T09:53:06.759Z,6.53
2023-05-01T09:55:39.393Z,12.38
2023-05-01T09:58:09.931Z,10.25
2023-05-01T10:00:52.071Z,9.18
2023-05-01T10:03:22.270Z,9.65
2023-05-01T10:05:52.310Z,8.65
2023-05-01T10:08:22.318Z,7.47
2023-05-01T10:11:08.332Z,9.68
2023-05-01T10:13:38.292Z,10.27
2023-05-01T10:16:10.728Z,6.80
2023-05-01T10:18:40.748Z,10.95
2023-05-01T10:21:10.969Z,8.60
2023-05-01T10:23:41.404Z,8.25
2023-05-01T10:26:17.911Z,10.18
2023-05-01T10:28:51.783Z,8.38
2023-05-01T10:31:22.112Z,5.97
2023-05-01T10:33:53.240Z,7.43
2023-05-01T10:36:28.751Z,10.68
2023-05-01T10:38:58.977Z,9.07
2023-05-01T10:42:14.197Z,8.40
2023-05-01T10:44:48.015Z,8.55
2023-05-01T10:47:48.989Z,11.50
2023-05-01T10:50:19.713Z,7.95
2023-05-01T10:53:20.541Z,8.73
2023-05-01T10:55:52.145Z,7.30
2023-05-01T10:59:04.681Z,10.48
2023-05-01T11:01:37.009Z,6.95
2023-05-01T11:04:08.521Z,9.95
2023-05-01T11:06:39.844Z,8.07
2023-05-01T11:09:41.378Z,11.20
2023-05-01T11:12:13.903Z,8.88
2023-05-01T11:15:09.788Z,7.32
2023-05-01T11:17:49.934Z,5.60
2023-05-01T11:20:52.201Z,12.02
2023-05-01T11:23:24.036Z,9.82
2023-05-01T11:26:04.990Z,6.05
2023-05-01T11:28:36.244Z,9.27
2023-05-01T11:31:08.990Z,7.85
2023-05-01T11:33:38.957Z,12.27
2023-05-01T11:36:09.432Z,7.75
2023-05-01T11:38:40.006Z,10.07
2023-05-01T11:41:10.559Z,8.07
2023-05-01T11:43:53.467Z,10.82
2023-05-01T11:46:31.371Z,9.52
2023-05-01T11:49:03.928Z,7.88
2023-05-01T11:51:34.794Z,10.15
2023-05-01T11:54:06.251Z,6.95
2023-05-01T11:56:38.424Z,10.18
2023-05-01T11:59:17.301Z,8.15
2023-05-01T12:01:51.221Z,9.88
2023-05-01T12:04:31.556Z,11.90
2023-05-01T12:07:02.818Z,9.90
2023-05-01T12:09:33.992Z,10.02
2023-05-01T12:12:04.444Z,8.68
2023-05-01T12:14:34.825Z,7.93
2023-05-01T12:17:09.989Z,12.90
2023-05-01T12:19:51.564Z,9.10
2023-05-01T12:22:22.009Z,9.48
2023-05-01T12:24:54.442Z,11.30
2023-05-01T12:27:24.517Z,8.40
2023-05-01T12:29:55.221Z,9.93
2023-05-01T12:32:35.207Z,9.07
2023-05-01T12:35:17.371Z,10.77
2023-05-01T12:37:47.369Z,7.78
2023-05-01T12:40:19.135Z,9.43
2023-05-01T12:42:59.542Z,7.25
2023-05-01T12:45:29.664Z,10.32
2023-05-01T12:48:02.489Z,11.57
2023-05-01T12:50:32.619Z,5.43
2023-05-01T12:53:07.320Z,6.43
2023-05-01T12:55:48.397Z,9.63
2023-05-01T12:58:20.855Z,7.75
2023-05-01T13:00:53.149Z,9.23
2023-05-01T13:03:29.635Z,7.93
2023-05-01T13:06:02.470Z,10.55
2023-05-01T13:08:34.399Z,7.75
2023-05-01T13:11:13.858Z,8.55
2023-05-01T13:13:45.775Z,9.55
2023-05-01T13:16:18.201Z,9.65
2023-05-01T13:18:53.804Z,8.38
2023-05-01T13:21:25.545Z,10.80
2023-05-01T13:23:57.688Z,8.43
2023-05-01T13:26:33.007Z,10.88
2023-05-01T13:29:03.943Z,10.02
2023-05-01T13:31:34.498Z,8.65
2023-05-01T13:34:08.556Z,9.38
2023-05-01T13:36:38.952Z,9.35
2023-05-01T13:39:09.098Z,9.98
2023-05-01T13:41:39.871Z,8.25
2023-05-01T13:44:10.111Z,7.70
2023-05-01T13:46:42.972Z,7.88
2023-05-01T13:49:16.818Z,9.02
2023-05-01T13:51:48.987Z,6.65
2023-05-01T13:54:20.815Z,8.10
2023-05-01T13:56:50.920Z,8.68
2023-05-01T13:59:20.985Z,7.32
2023-05-01T14:01:51.270Z,11.38
2023-05-01T14:04:24.114Z,9.38
2023-05-01T14:06:54.402Z,14.00
2023-05-01T14:09:24.445Z,7.97
2023-05-01T14:12:00.712Z,9.23
2023-05-01T14:14:30.854Z,12.00
2023-05-01T14:17:00.894Z,6.95
2023-05-01T14:19:33.553Z,8.73
2023-05-01T14:22:03.527Z,9.63
2023-05-01T14:24:34.153Z,6.95
2023-05-01T14:27:07.361Z,4.40
2023-05-01T14:29:37.348Z,7.68
2023-05-01T14:32:08.740Z,6.78
2023-05-01T14:34:45.523Z,6.07
2023-05-01T14:37:16.256Z,11.00
2023-05-01T14:39:46.221Z,9.55
2023-05-01T14:42:16.428Z,6.88
2023-05-01T14:44:46.431Z,7.47
2023-05-01T14:47:22.935Z,6.82
2023-05-01T14:49:56.942Z,11.60
2023-05-01T14:52:26.907Z,5.07
2023-05-01T14:54:57.038Z,10.35
2023-05-01T14:57:29.142Z,8.50
2023-05-01T14:59:59.282Z,8.18
2023-05-01T15:02:30.454Z,7.90
2023-05-01T15:05:03.699Z,8.55
2023-05-01T15:07:34.028Z,7.47
2023-05-01T15:10:04.009Z,8.10
2023-05-01T15:12:33.957Z,9.65
2023-05-01T15:15:04.108Z,11.40
2023-05-01T15:17:34.121Z,8.52
2023-05-01T15:20:08.106Z,8.02
2023-05-01T15:22:40.334Z,9.68
2023-05-01T15:25:12.811Z,7.68
2023-05-01T15:27:44.572Z,7.88
2023-05-01T15:30:17.716Z,7.75
2023-05-01T15:32:47.784Z,8.85
2023-05-01T15:35:21.676Z,7.97
2023-05-01T15:37:51.634Z,6.97
2023-05-01T15:40:21.871Z,8.57
2023-05-01T15:42:52.116Z,7.60
2023-05-01T15:45:23.036Z,8.75
2023-05-01T15:47:53.079Z,12.18
2023-05-01T15:50:27.140Z,7.22
2023-05-01T15:52:57.187Z,7.75
2023-05-01T15:55:27.225Z,11.30
2023-05-01T15:57:57.181Z,8.73
2023-05-01T16:00:27.531Z,9.35
2023-05-01T16:02:57.552Z,7.95
2023-05-01T16:05:30.227Z,7.90
2023-05-01T16:08:04.935Z,7.40
2023-05-01T16:10:37.245Z,8.02
2023-05-01T16:13:08.656Z,8.43
2023-05-01T16:15:40.205Z,7.68
2023-05-01T16:18:11.195Z,8.82
2023-05-01T16:20:46.424Z,11.05
2023-05-01T16:23:18.199Z,10.52
2023-05-01T16:25:48.672Z,9.10
2023-05-01T16:28:19.902Z,11.75
2023-05-01T16:30:50.592Z,10.32
2023-05-01T16:33:23.547Z,9.80
2023-05-01T16:35:57.548Z,8.27
2023-05-01T16:38:29.525Z,11.48
2023-05-01T16:40:59.491Z,14.43
2023-05-01T16:43:29.466Z,12.65
2023-05-01T16:46:01.657Z,8.85
2023-05-01T16:48:31.780Z,9.10
2023-05-01T16:51:07.512Z,10.00
2023-05-01T16:53:37.694Z,10.85
2023-05-01T16:56:10.309Z,8.80
2023-05-01T16:58:40.274Z,8.25
2023-05-01T17:01:10.263Z,13.68
2023-05-01T17:03:40.320Z,9.23
2023-05-01T17:06:12.850Z,13.80
2023-05-01T17:08:42.852Z,8.02
2023-05-01T17:11:14.628Z,10.55
2023-05-01T17:13:44.656Z,12.68
2023-05-01T17:16:14.670Z,13.80
2023-05-01T17:18:44.713Z,15.68
2023-05-01T17:21:17.425Z,9.63
2023-05-01T17:23:47.428Z,11.68
2023-05-01T17:26:17.576Z,7.93
2023-05-01T17:28:49.197Z,8.82
2023-05-01T17:31:21.868Z,8.30
2023-05-01T17:33:52.525Z,11.38
2023-05-01T17:36:25.122Z,9.02
2023-05-01T17:38:55.059Z,13.07
2023-05-01T17:41:25.306Z,9.20
2023-05-01T17:43:55.414Z,8.65
2023-05-01T17:46:25.590Z,9.77
2023-05-01T17:48:55.751Z,9.57
2023-05-01T17:51:28.650Z,9.25
2023-05-01T17:53:58.603Z,9.70
2023-05-01T17:56:28.632Z,9.98
2023-05-01T17:58:58.607Z,8.10
2023-05-01T18:01:28.985Z,7.70
2023-05-01T18:03:59.265Z,10.93
2023-05-01T18:06:32.097Z,10.40
2023-05-01T18:09:02.089Z,10.82
2023-05-01T18:11:32.052Z,9.27
2023-05-01T18:14:02.590Z,10.43
2023-05-01T18:16:32.652Z,11.15
2023-05-01T18:19:02.685Z,11.00
2023-05-01T18:21:35.309Z,10.35
2023-05-01T18:24:05.624Z,14.10
2023-05-01T18:26:36.373Z,16.27
2023-05-01T18:29:06.330Z,15.63
2023-05-01T18:31:38.353Z,11.27
2023-05-01T18:34:10.299Z,13.52
2023-05-01T18:36:42.848Z,14.40
2023-05-01T18:39:12.889Z,14.18
2023-05-01T18:41:42.927Z,16.50
2023-05-01T18:44:12.869Z,13.27
2023-05-01T18:46:43.798Z,13.05
2023-05-01T18:49:14.034Z,14.45
2023-05-01T18:51:48.009Z,15.90
2023-05-01T18:54:18.194Z,15.90
2023-05-01T18:56:48.171Z,16.58
2023-05-01T18:59:18.456Z,15.75
2023-05-01T19:01:50.296Z,14.80
2023-05-01T19:04:22.035Z,16.65
2023-05-01T19:06:54.830Z,14.02
2023-05-01T19:09:25.185Z,21.05
2023-05-01T19:11:55.142Z,16.75
2023-05-01T19:14:25.360Z,18.75
2023-05-01T19:16:55.347Z,16.77
2023-05-01T19:19:26.326Z,17.38
2023-05-01T19:21:59.112Z,15.02
2023-05-01T19:24:29.072Z,18.25
2023-05-01T19:26:59.088Z,19.42
2023-05-01T19:29:29.075Z,19.35
2023-05-01T19:32:00.407Z,20.40
2023-05-01T19:34:31.011Z,17.95
2023-05-01T19:37:03.943Z,16.45
2023-05-01T19:39:34.369Z,22.52
2023-05-01T19:42:04.596Z,18.73
2023-05-01T19:44:34.712Z,19.83
2023-05-01T19:47:04.823Z,19.50
2023-05-01T19:49:34.879Z,17.88
2023-05-01T19:52:08.021Z,17.42
2023-05-01T19:54:37.999Z,18.23
2023-05-01T19:57:08.061Z,17.42
2023-05-01T19:59:41.267Z,19.05
2023-05-01T20:02:11.354Z,16.25
2023-05-01T20:04:41.393Z,17.63
2023-05-01T20:07:14.623Z,20.83
2023-05-01T20:09:44.889Z,20.20
2023-05-01T20:12:14.932Z,16.95
2023-05-01T20:14:44.964Z,15.93
2023-05-01T20:17:14.928Z,23.42
2023-05-01T20:19:45.049Z,16.63
2023-05-01T20:22:17.829Z,21.30
2023-05-01T20:24:48.103Z,20.83
2023-05-01T20:27:18.522Z,13.85
2023-05-01T20:29:48.869Z,13.25
2023-05-01T20:32:20.228Z,15.35
2023-05-01T20:34:50.949Z,16.67
2023-05-01T20:37:23.760Z,20.30
2023-05-01T20:39:53.749Z,17.02
2023-05-01T20:42:23.926Z,16.55
2023-05-01T20:44:53.900Z,20.95
2023-05-01T20:47:24.367Z,16.35
2023-05-01T20:49:54.446Z,16.42
2023-05-01T20:52:27.881Z,18.30
2023-05-01T20:54:57.871Z,18.15
2023-05-01T20:57:27.855Z,19.45
2023-05-01T20:59:58.079Z,21.00
2023-05-01T21:02:28.323Z,19.27
2023-05-01T21:04:58.397Z,16.98
2023-05-01T21:07:32.427Z,19.08
2023-05-01T21:10:03.101Z,17.08
2023-05-01T21:12:33.092Z,21.38
2023-05-01T21:15:03.084Z,23.02
2023-05-01T21:17:35.638Z,16.80
2023-05-01T21:20:08.707Z,19.35
2023-05-01T21:22:45.782Z,18.80
2023-05-01T21:25:20.052Z,19.08
2023-05-01T21:27:50.140Z,20.20
2023-05-01T21:30:33.709Z,18.38
2023-05-01T21:33:03.986Z,22.48
2023-05-01T21:35:34.331Z,13.68
2023-05-01T21:38:07.308Z,16.95
2023-05-01T21:40:40.302Z,22.02
2023-05-01T21:43:11.938Z,16.35
2023-05-01T21:45:46.187Z,17.52
2023-05-01T21:48:18.635Z,16.75
2023-05-01T21:50:52.433Z,17.05
2023-05-01T21:53:25.087Z,16.03
2023-05-01T21:55:55.114Z,17.25
2023-05-01T21:58:25.177Z,17.05
2023-05-01T22:00:55.557Z,16.40
2023-05-01T22:03:25.708Z,17.23
2023-05-01T22:05:55.837Z,17.55
2023-05-01T22:08:31.199Z,21.52
2023-05-01T22:11:01.238Z,18.80
2023-05-01T22:13:33.657Z,19.33
2023-05-01T22:16:04.117Z,17.02
2023-05-01T22:18:34.176Z,21.20
2023-05-01T22:21:04.726Z,17.35
2023-05-01T22:23:37.277Z,22.27
2023-05-01T22:26:07.298Z,17.33
2023-05-01T22:28:37.603Z,19.13
2023-05-01T22:31:07.819Z,26.40
2023-05-01T22:33:37.806Z,24.92
2023-05-01T22:36:08.697Z,24.90
2023-05-01T22:38:41.461Z,24.77
2023-05-01T22:41:11.779Z,26.70
2023-05-01T22:43:41.899Z,25.85
2023-05-01T22:46:11.897Z,22.58
2023-05-01T22:48:41.889Z,25.90
2023-05-01T22:51:11.869Z,23.90
2023-05-01T22:53:44.677Z,25.27
2023-05-01T22:56:14.652Z,23.38
2023-05-01T22:58:44.592Z,23.95
2023-05-01T23:01:14.693Z,21.15
2023-05-01T23:03:44.748Z,24.92
2023-05-01T23:06:14.858Z,23.45
2023-05-01T23:08:47.488Z,22.27
2023-05-01T23:11:22.024Z,25.23
2023-05-01T23:13:53.413Z,23.52
2023-05-01T23:16:23.443Z,23.08
2023-05-01T23:18:53.635Z,22.75
2023-05-01T23:21:23.834Z,23.92
2023-05-01T23:23:56.469Z,22.85
2023-05-01T23:26:29.119Z,22.80
2023-05-01T23:29:00.186Z,19.50
2023-05-01T23:31:30.731Z,22.23
2023-05-01T23:34:01.398Z,19.75
2023-05-01T23:36:31.675Z,21.42
2023-05-01T23:39:04.238Z,19.80
2023-05-01T23:41:34.310Z,17.88
2023-05-01T23:44:04.599Z,19.95
2023-05-01T23:46:34.731Z,19.25
2023-05-01T23:49:05.150Z,18.15
2023-05-01T23:51:35.350Z,21.83
2023-05-01T23:54:07.929Z,17.73
2023-05-01T23:56:37.877Z,19.45
2023-05-01T23:59:08.269Z,19.02
